Time,TemperatureF,DewpointF,PressureIn,WindDirection,WindDirectionDegrees,WindSpeedMPH,WindSpeedGustMPH,Humidity,HourlyPrecipIn,Conditions,Clouds,dailyrainin,SoftwareType,DateUTC
2013-03-03 00:01:00,21.0,-99.9,-100.00,WNW,291,22.0,31.0,-999,-99.99,,,-99.99,,2013-03-03 07:01:00,
2013-03-03 00:11:00,21.0,-99.9,-100.00,WNW,291,22.0,31.0,-999,-99.99,,,-99.99,,2013-03-03 07:11:00,
2013-03-03 00:22:00,21.0,-99.9,-100.00,WNW,285,24.0,31.0,-999,-99.99,,,-99.99,,2013-03-03 07:22:00,
2013-03-03 00:32:00,21.0,-99.9,-100.00,WNW,287,23.0,32.0,-999,-99.99,,,-99.99,,2013-03-03 07:32:00,
2013-03-03 00:42:00,21.0,-99.9,-100.00,WNW,287,23.0,32.0,-999,-99.99,,,-99.99,,2013-03-03 07:42:00,
2013-03-03 00:52:00,21.0,-99.9,-100.00,WNW,287,22.0,32.0,-999,-99.99,,,-99.99,,2013-03-03 07:52:00,
2013-03-03 01:01:00,22.0,-99.9,-100.00,West,281,19.0,28.0,-999,-99.99,,,-99.99,,2013-03-03 08:01:00,
2013-03-03 01:11:00,22.0,-99.9,-100.00,West,281,19.0,28.0,-999,-99.99,,,-99.99,,2013-03-03 08:11:00,
2013-03-03 01:21:00,22.0,-99.9,-100.00,West,269,21.0,29.0,-999,-99.99,,,-99.99,,2013-03-03 08:21:00,
2013-03-03 01:32:00,22.0,-99.9,-100.00,West,266,23.0,31.0,-999,-99.99,,,-99.99,,2013-03-03 08:32:00,
2013-03-03 01:42:00,22.0,-99.9,-100.00,West,266,23.0,31.0,-999,-99.99,,,-99.99,,2013-03-03 08:42:00,
2013-03-03 01:54:00,22.0,-99.9,-100.00,West,265,24.0,33.0,-999,-99.99,,,-99.99,,2013-03-03 08:54:00,
2013-03-03 02:02:00,22.0,-99.9,-100.00,West,268,24.0,32.0,-999,-99.99,,,-99.99,,2013-03-03 09:02:00,
2013-03-03 02:12:00,22.0,-99.9,-100.00,West,268,24.0,32.0,-999,-99.99,,,-99.99,,2013-03-03 09:12:00,
2013-03-03 02:22:00,22.0,-99.9,-100.00,West,270,23.0,31.0,-999,-99.99,,,-99.99,,2013-03-03 09:22:00,
2013-03-03 02:32:00,22.0,-99.9,-100.00,West,274,24.0,32.0,-999,-99.99,,,-99.99,,2013-03-03 09:32:00,
2013-03-03 02:42:00,22.0,-99.9,-100.00,West,274,24.0,32.0,-999,-99.99,,,-99.99,,2013-03-03 09:42:00,
2013-03-03 02:52:00,22.0,-99.9,-100.00,West,273,24.0,36.0,-999,-99.99,,,-99.99,,2013-03-03 09:52:00,
2013-03-03 03:01:00,22.0,-99.9,-100.00,West,265,28.0,38.0,-999,-99.99,,,-99.99,,2013-03-03 10:01:00,
2013-03-03 03:12:00,22.0,-99.9,-100.00,West,265,28.0,38.0,-999,-99.99,,,-99.99,,2013-03-03 10:12:00,
2013-03-03 03:22:00,22.0,-99.9,-100.00,West,271,27.0,36.0,-999,-99.99,,,-99.99,,2013-03-03 10:22:00,
2013-03-03 03:32:00,21.0,-99.9,-100.00,West,271,24.0,31.0,-999,-99.99,,,-99.99,,2013-03-03 10:32:00,
2013-03-03 03:42:00,21.0,-99.9,-100.00,West,271,24.0,31.0,-999,-99.99,,,-99.99,,2013-03-03 10:42:00,
2013-03-03 03:52:00,21.0,-99.9,-100.00,West,272,25.0,36.0,-999,-99.99,,,-99.99,,2013-03-03 10:52:00,
2013-03-03 04:02:00,22.0,-99.9,-100.00,West,275,28.0,39.0,-999,-99.99,,,-99.99,,2013-03-03 11:02:00,
2013-03-03 04:11:00,22.0,-99.9,-100.00,West,275,28.0,39.0,-999,-99.99,,,-99.99,,2013-03-03 11:11:00,
2013-03-03 04:22:00,22.0,-99.9,-100.00,WNW,282,25.0,36.0,-999,-99.99,,,-99.99,,2013-03-03 11:22:00,
2013-03-03 04:32:00,22.0,-99.9,-100.00,West,272,25.0,38.0,-999,-99.99,,,-99.99,,2013-03-03 11:32:00,
2013-03-03 04:42:00,22.0,-99.9,-100.00,West,272,25.0,38.0,-999,-99.99,,,-99.99,,2013-03-03 11:42:00,
2013-03-03 04:53:00,22.0,-99.9,-100.00,West,275,26.0,35.0,-999,-99.99,,,-99.99,,2013-03-03 11:53:00,
2013-03-03 05:02:00,21.0,-99.9,-100.00,West,279,26.0,36.0,-999,-99.99,,,-99.99,,2013-03-03 12:02:00,
2013-03-03 05:11:00,21.0,-99.9,-100.00,West,279,26.0,36.0,-999,-99.99,,,-99.99,,2013-03-03 12:11:00,
2013-03-03 05:22:00,21.0,-99.9,-100.00,West,279,28.0,40.0,-999,-99.99,,,-99.99,,2013-03-03 12:22:00,
2013-03-03 05:32:00,21.0,-99.9,-100.00,West,275,28.0,43.0,-999,-99.99,,,-99.99,,2013-03-03 12:32:00,
2013-03-03 05:43:00,21.0,-99.9,-100.00,West,275,28.0,43.0,-999,-99.99,,,-99.99,,2013-03-03 12:43:00,
2013-03-03 05:53:00,21.0,-99.9,-100.00,West,270,31.0,43.0,-999,-99.99,,,-99.99,,2013-03-03 12:53:00,
2013-03-03 06:02:00,20.0,-99.9,-100.00,West,276,37.0,52.0,-999,-99.99,,,-99.99,,2013-03-03 13:02:00,
2013-03-03 06:11:00,20.0,-99.9,-100.00,West,276,37.0,52.0,-999,-99.99,,,-99.99,,2013-03-03 13:11:00,
2013-03-03 06:22:00,20.0,-99.9,-100.00,West,277,38.0,53.0,-999,-99.99,,,-99.99,,2013-03-03 13:22:00,
2013-03-03 06:32:00,20.0,-99.9,-100.00,West,278,36.0,52.0,-999,-99.99,,,-99.99,,2013-03-03 13:32:00,
2013-03-03 06:42:00,20.0,-99.9,-100.00,West,278,36.0,52.0,-999,-99.99,,,-99.99,,2013-03-03 13:42:00,
2013-03-03 06:52:00,20.0,-99.9,-100.00,West,275,37.0,56.0,-999,-99.99,,,-99.99,,2013-03-03 13:52:00,
2013-03-03 07:02:00,20.0,-99.9,-100.00,West,276,34.0,49.0,-999,-99.99,,,-99.99,,2013-03-03 14:02:00,
2013-03-03 07:11:00,20.0,-99.9,-100.00,West,276,34.0,49.0,-999,-99.99,,,-99.99,,2013-03-03 14:11:00,
2013-03-03 07:22:00,20.0,-99.9,-100.00,West,279,35.0,52.0,-999,-99.99,,,-99.99,,2013-03-03 14:22:00,
2013-03-03 07:32:00,20.0,-99.9,-100.00,WNW,282,36.0,56.0,-999,-99.99,,,-99.99,,2013-03-03 14:32:00,
2013-03-03 07:42:00,20.0,-99.9,-100.00,WNW,282,36.0,56.0,-999,-99.99,,,-99.99,,2013-03-03 14:42:00,
2013-03-03 07:52:00,20.0,-99.9,-100.00,WNW,283,31.0,45.0,-999,-99.99,,,-99.99,,2013-03-03 14:52:00,
2013-03-03 08:02:00,20.0,-99.9,-100.00,West,275,31.0,42.0,-999,-99.99,,,-99.99,,2013-03-03 15:02:00,
2013-03-03 08:11:00,20.0,-99.9,-100.00,West,275,31.0,42.0,-999,-99.99,,,-99.99,,2013-03-03 15:11:00,
2013-03-03 08:22:00,20.0,-99.9,-100.00,West,273,32.0,48.0,-999,-99.99,,,-99.99,,2013-03-03 15:22:00,
2013-03-03 08:33:00,20.0,-99.9,-100.00,West,266,31.0,46.0,-999,-99.99,,,-99.99,,2013-03-03 15:33:00,
2013-03-03 08:42:00,20.0,-99.9,-100.00,West,266,31.0,46.0,-999,-99.99,,,-99.99,,2013-03-03 15:42:00,
2013-03-03 08:52:00,20.0,-99.9,-100.00,West,268,30.0,43.0,-999,-99.99,,,-99.99,,2013-03-03 15:52:00,
2013-03-03 09:02:00,20.0,-99.9,-100.00,West,270,30.0,45.0,-999,-99.99,,,-99.99,,2013-03-03 16:02:00,
2013-03-03 09:12:00,20.0,-99.9,-100.00,West,270,30.0,45.0,-999,-99.99,,,-99.99,,2013-03-03 16:12:00,
2013-03-03 09:22:00,21.0,-99.9,-100.00,West,268,30.0,42.0,-999,-99.99,,,-99.99,,2013-03-03 16:22:00,
2013-03-03 09:32:00,21.0,-99.9,-100.00,West,267,28.0,40.0,-999,-99.99,,,-99.99,,2013-03-03 16:32:00,
2013-03-03 09:42:00,21.0,-99.9,-100.00,West,267,28.0,40.0,-999,-99.99,,,-99.99,,2013-03-03 16:42:00,
2013-03-03 09:52:00,21.0,-99.9,-100.00,West,269,29.0,40.0,-999,-99.99,,,-99.99,,2013-03-03 16:52:00,
2013-03-03 10:01:00,21.0,-99.9,-100.00,West,266,31.0,45.0,-999,-99.99,,,-99.99,,2013-03-03 17:01:00,
2013-03-03 10:12:00,21.0,-99.9,-100.00,West,266,31.0,45.0,-999,-99.99,,,-99.99,,2013-03-03 17:12:00,
2013-03-03 10:22:00,21.0,-99.9,-100.00,West,264,32.0,46.0,-999,-99.99,,,-99.99,,2013-03-03 17:22:00,
2013-03-03 10:32:00,21.0,-99.9,-100.00,West,268,31.0,40.0,-999,-99.99,,,-99.99,,2013-03-03 17:32:00,
2013-03-03 10:42:00,21.0,-99.9,-100.00,West,268,31.0,40.0,-999,-99.99,,,-99.99,,2013-03-03 17:42:00,
2013-03-03 10:52:00,21.0,-99.9,-100.00,West,270,32.0,45.0,-999,-99.99,,,-99.99,,2013-03-03 17:52:00,
2013-03-03 11:02:00,21.0,-99.9,-100.00,West,267,32.0,42.0,-999,-99.99,,,-99.99,,2013-03-03 18:02:00,
2013-03-03 11:11:00,21.0,-99.9,-100.00,West,267,32.0,42.0,-999,-99.99,,,-99.99,,2013-03-03 18:11:00,
2013-03-03 11:22:00,21.0,-99.9,-100.00,West,264,32.0,42.0,-999,-99.99,,,-99.99,,2013-03-03 18:22:00,
2013-03-03 11:32:00,21.0,-99.9,-100.00,West,263,31.0,40.0,-999,-99.99,,,-99.99,,2013-03-03 18:32:00,
2013-03-03 11:42:00,21.0,-99.9,-100.00,West,263,31.0,40.0,-999,-99.99,,,-99.99,,2013-03-03 18:42:00,
2013-03-03 11:53:00,21.0,-99.9,-100.00,West,265,30.0,42.0,-999,-99.99,,,-99.99,,2013-03-03 18:53:00,
2013-03-03 12:02:00,21.0,-99.9,-100.00,West,265,33.0,42.0,-999,-99.99,,,-99.99,,2013-03-03 19:02:00,
2013-03-03 12:11:00,21.0,-99.9,-100.00,West,265,33.0,42.0,-999,-99.99,,,-99.99,,2013-03-03 19:11:00,
2013-03-03 12:22:00,21.0,-99.9,-100.00,West,267,31.0,43.0,-999,-99.99,,,-99.99,,2013-03-03 19:22:00,
2013-03-03 12:32:00,21.0,-99.9,-100.00,West,264,34.0,50.0,-999,-99.99,,,-99.99,,2013-03-03 19:32:00,
2013-03-03 12:42:00,21.0,-99.9,-100.00,West,264,34.0,50.0,-999,-99.99,,,-99.99,,2013-03-03 19:42:00,
2013-03-03 12:52:00,21.0,-99.9,-100.00,West,260,34.0,46.0,-999,-99.99,,,-99.99,,2013-03-03 19:52:00,
2013-03-03 13:02:00,21.0,-99.9,-100.00,West,264,35.0,46.0,-999,-99.99,,,-99.99,,2013-03-03 20:02:00,
2013-03-03 13:12:00,21.0,-99.9,-100.00,West,264,35.0,46.0,-999,-99.99,,,-99.99,,2013-03-03 20:12:00,
2013-03-03 13:22:00,20.0,-99.9,-100.00,West,268,29.0,42.0,-999,-99.99,,,-99.99,,2013-03-03 20:22:00,
2013-03-03 13:32:00,20.0,-99.9,-100.00,West,264,25.0,38.0,-999,-99.99,,,-99.99,,2013-03-03 20:32:00,
2013-03-03 13:43:00,20.0,-99.9,-100.00,West,264,25.0,38.0,-999,-99.99,,,-99.99,,2013-03-03 20:43:00,
2013-03-03 13:53:00,21.0,-99.9,-100.00,WSW,256,23.0,35.0,-999,-99.99,,,-99.99,,2013-03-03 20:53:00,
2013-03-03 14:02:00,20.0,-99.9,-100.00,West,261,27.0,42.0,-999,-99.99,,,-99.99,,2013-03-03 21:02:00,
2013-03-03 14:12:00,20.0,-99.9,-100.00,West,261,27.0,42.0,-999,-99.99,,,-99.99,,2013-03-03 21:12:00,
2013-03-03 14:22:00,20.0,-99.9,-100.00,West,259,26.0,38.0,-999,-99.99,,,-99.99,,2013-03-03 21:22:00,
2013-03-03 14:32:00,20.0,-99.9,-100.00,West,265,25.0,39.0,-999,-99.99,,,-99.99,,2013-03-03 21:32:00,
2013-03-03 14:42:00,20.0,-99.9,-100.00,West,265,25.0,39.0,-999,-99.99,,,-99.99,,2013-03-03 21:42:00,
2013-03-03 14:52:00,19.0,-99.9,-100.00,West,263,29.0,43.0,-999,-99.99,,,-99.99,,2013-03-03 21:52:00,
2013-03-03 15:02:00,19.0,-99.9,-100.00,West,264,24.0,32.0,-999,-99.99,,,-99.99,,2013-03-03 22:02:00,
2013-03-03 15:11:00,19.0,-99.9,-100.00,West,264,24.0,32.0,-999,-99.99,,,-99.99,,2013-03-03 22:11:00,
2013-03-03 15:22:00,19.0,-99.9,-100.00,West,265,30.0,42.0,-999,-99.99,,,-99.99,,2013-03-03 22:22:00,
2013-03-03 15:32:00,18.0,-99.9,-100.00,West,262,31.0,43.0,-999,-99.99,,,-99.99,,2013-03-03 22:32:00,
2013-03-03 15:42:00,18.0,-99.9,-100.00,West,262,31.0,43.0,-999,-99.99,,,-99.99,,2013-03-03 22:42:00,
2013-03-03 15:53:00,18.0,-99.9,-100.00,West,264,28.0,39.0,-999,-99.99,,,-99.99,,2013-03-03 22:53:00,
2013-03-03 16:02:00,17.0,-99.9,-100.00,West,264,23.0,35.0,-999,-99.99,,,-99.99,,2013-03-03 23:02:00,
2013-03-03 16:12:00,17.0,-99.9,-100.00,West,264,23.0,35.0,-999,-99.99,,,-99.99,,2013-03-03 23:12:00,
2013-03-03 16:22:00,17.0,-99.9,-100.00,West,261,27.0,43.0,-999,-99.99,,,-99.99,,2013-03-03 23:22:00,
2013-03-03 16:32:00,17.0,-99.9,-100.00,WSW,252,28.0,49.0,-999,-99.99,,,-99.99,,2013-03-03 23:32:00,
2013-03-03 16:42:00,17.0,-99.9,-100.00,WSW,252,28.0,49.0,-999,-99.99,,,-99.99,,2013-03-03 23:42:00,
2013-03-03 16:52:00,17.0,-99.9,-100.00,WSW,246,28.0,48.0,-999,-99.99,,,-99.99,,2013-03-03 23:52:00,
2013-03-03 17:02:00,16.0,-99.9,-100.00,WSW,242,28.0,45.0,-999,-99.99,,,-99.99,,2013-03-04 00:02:00,
2013-03-03 17:11:00,16.0,-99.9,-100.00,WSW,242,28.0,45.0,-999,-99.99,,,-99.99,,2013-03-04 00:11:00,
2013-03-03 17:22:00,16.0,-99.9,-100.00,WSW,252,24.0,38.0,-999,-99.99,,,-99.99,,2013-03-04 00:22:00,
2013-03-03 17:32:00,16.0,-99.9,-100.00,WSW,255,25.0,36.0,-999,-99.99,,,-99.99,,2013-03-04 00:32:00,
2013-03-03 17:42:00,16.0,-99.9,-100.00,WSW,255,25.0,36.0,-999,-99.99,,,-99.99,,2013-03-04 00:42:00,
2013-03-03 17:52:00,15.0,-99.9,-100.00,WSW,257,25.0,38.0,-999,-99.99,,,-99.99,,2013-03-04 00:52:00,
2013-03-03 18:02:00,15.0,-99.9,-100.00,West,259,27.0,35.0,-999,-99.99,,,-99.99,,2013-03-04 01:02:00,
2013-03-03 18:12:00,15.0,-99.9,-100.00,West,259,27.0,35.0,-999,-99.99,,,-99.99,,2013-03-04 01:12:00,
2013-03-03 18:22:00,15.0,-99.9,-100.00,West,262,28.0,38.0,-999,-99.99,,,-99.99,,2013-03-04 01:22:00,
2013-03-03 18:32:00,15.0,-99.9,-100.00,West,260,33.0,46.0,-999,-99.99,,,-99.99,,2013-03-04 01:32:00,
2013-03-03 18:42:00,15.0,-99.9,-100.00,West,260,33.0,46.0,-999,-99.99,,,-99.99,,2013-03-04 01:42:00,
2013-03-03 18:52:00,14.0,-99.9,-100.00,West,269,35.0,56.0,-999,-99.99,,,-99.99,,2013-03-04 01:52:00,
2013-03-03 19:01:00,14.0,-99.9,-100.00,West,270,27.0,38.0,-999,-99.99,,,-99.99,,2013-03-04 02:01:00,
2013-03-03 19:11:00,14.0,-99.9,-100.00,West,270,27.0,38.0,-999,-99.99,,,-99.99,,2013-03-04 02:11:00,
2013-03-03 19:22:00,14.0,-99.9,-100.00,West,268,38.0,53.0,-999,-99.99,,,-99.99,,2013-03-04 02:22:00,
2013-03-03 19:32:00,13.0,-99.9,-100.00,West,264,42.0,57.0,-999,-99.99,,,-99.99,,2013-03-04 02:32:00,
2013-03-03 19:42:00,13.0,-99.9,-100.00,West,264,42.0,57.0,-999,-99.99,,,-99.99,,2013-03-04 02:42:00,
2013-03-03 19:53:00,12.0,-99.9,-100.00,West,265,36.0,49.0,-999,-99.99,,,-99.99,,2013-03-04 02:53:00,
2013-03-03 20:02:00,12.0,-99.9,-100.00,West,266,32.0,40.0,-999,-99.99,,,-99.99,,2013-03-04 03:02:00,
2013-03-03 20:12:00,12.0,-99.9,-100.00,West,266,32.0,40.0,-999,-99.99,,,-99.99,,2013-03-04 03:12:00,
2013-03-03 20:22:00,12.0,-99.9,-100.00,West,266,25.0,38.0,-999,-99.99,,,-99.99,,2013-03-04 03:22:00,
2013-03-03 20:32:00,12.0,-99.9,-100.00,West,276,32.0,45.0,-999,-99.99,,,-99.99,,2013-03-04 03:32:00,
2013-03-03 20:42:00,12.0,-99.9,-100.00,West,276,32.0,45.0,-999,-99.99,,,-99.99,,2013-03-04 03:42:00,
2013-03-03 20:53:00,11.0,-99.9,-100.00,West,277,34.0,52.0,-999,-99.99,,,-99.99,,2013-03-04 03:53:00,
2013-03-03 21:02:00,11.0,-99.9,-100.00,WNW,285,29.0,45.0,-999,-99.99,,,-99.99,,2013-03-04 04:02:00,
2013-03-03 21:11:00,11.0,-99.9,-100.00,WNW,285,29.0,45.0,-999,-99.99,,,-99.99,,2013-03-04 04:11:00,
2013-03-03 21:22:00,10.0,-99.9,-100.00,WNW,287,24.0,36.0,-999,-99.99,,,-99.99,,2013-03-04 04:22:00,
2013-03-03 21:32:00,10.0,-99.9,-100.00,NW,308,22.0,33.0,-999,-99.99,,,-99.99,,2013-03-04 04:32:00,
2013-03-03 21:42:00,10.0,-99.9,-100.00,NW,308,22.0,33.0,-999,-99.99,,,-99.99,,2013-03-04 04:42:00,
2013-03-03 21:52:00,8.0,-99.9,-100.00,NNW,336,20.0,29.0,-999,-99.99,,,-99.99,,2013-03-04 04:52:00,
2013-03-03 22:01:00,7.0,-99.9,-100.00,NNW,338,19.0,26.0,-999,-99.99,,,-99.99,,2013-03-04 05:01:00,
2013-03-03 22:11:00,7.0,-99.9,-100.00,NNW,338,19.0,26.0,-999,-99.99,,,-99.99,,2013-03-04 05:11:00,
2013-03-03 22:22:00,6.0,-99.9,-100.00,NNW,331,19.0,29.0,-999,-99.99,,,-99.99,,2013-03-04 05:22:00,
2013-03-03 22:32:00,6.0,-99.9,-100.00,NNW,334,19.0,31.0,-999,-99.99,,,-99.99,,2013-03-04 05:32:00,
2013-03-03 22:43:00,6.0,-99.9,-100.00,NNW,334,19.0,31.0,-999,-99.99,,,-99.99,,2013-03-04 05:43:00,
2013-03-03 22:52:00,5.0,-99.9,-100.00,NNW,335,17.0,22.0,-999,-99.99,,,-99.99,,2013-03-04 05:52:00,
2013-03-03 23:02:00,5.0,-99.9,-100.00,NNW,331,17.0,22.0,-999,-99.99,,,-99.99,,2013-03-04 06:02:00,
2013-03-03 23:11:00,5.0,-99.9,-100.00,NNW,331,17.0,22.0,-999,-99.99,,,-99.99,,2013-03-04 06:11:00,
2013-03-03 23:22:00,5.0,-99.9,-100.00,NW,323,17.0,22.0,-999,-99.99,,,-99.99,,2013-03-04 06:22:00,
2013-03-03 23:32:00,4.0,-99.9,-100.00,NW,324,17.0,22.0,-999,-99.99,,,-99.99,,2013-03-04 06:32:00,
2013-03-03 23:42:00,4.0,-99.9,-100.00,NW,324,17.0,22.0,-999,-99.99,,,-99.99,,2013-03-04 06:42:00,
2013-03-03 23:52:00,4.0,-99.9,-100.00,NW,326,15.0,22.0,-999,-99.99,,,-99.99,,2013-03-04 06:52:00,